createdAt,value
2019-03-11T00:00:10.701Z,5.37
2019-03-11T00:02:39.232Z,8.73
2019-03-11T00:05:08.906Z,6.60
2019-03-11T00:07:37.326Z,7.27
2019-03-11T00:10:07.775Z,8.40
2019-03-11T00:12:36.208Z,5.40
2019-03-11T00:15:06.847Z,5.90
2019-03-11T00:17:35.279Z,7.87
2019-03-11T00:20:04.409Z,6.17
2019-03-11T00:22:32.827Z,7.27
2019-03-11T00:25:01.234Z,5.33
2019-03-11T00:27:29.627Z,8.07
2019-03-11T00:29:58.077Z,5.03
2019-03-11T00:32:26.491Z,6.83
2019-03-11T00:34:54.890Z,5.13
2019-03-11T00:37:23.290Z,7.60
2019-03-11T00:39:51.689Z,5.47
2019-03-11T00:42:20.094Z,7.53
2019-03-11T00:44:48.499Z,5.87
2019-03-11T00:47:16.993Z,5.27
2019-03-11T00:49:45.377Z,6.57
2019-03-11T00:52:13.813Z,6.20
2019-03-11T00:54:42.225Z,8.23
2019-03-11T00:57:10.623Z,10.10
2019-03-11T00:59:39.087Z,6.27
2019-03-11T01:02:07.731Z,6.03
2019-03-11T01:04:36.319Z,10.10
2019-03-11T01:07:04.709Z,6.23
2019-03-11T01:09:33.184Z,8.43
2019-03-11T01:12:01.589Z,8.47
2019-03-11T01:14:30.007Z,6.77
2019-03-11T01:16:58.424Z,6.80
2019-03-11T01:19:26.847Z,8.23
2019-03-11T01:21:55.260Z,5.77
2019-03-11T01:24:23.667Z,8.33
2019-03-11T01:26:52.063Z,6.43
2019-03-11T01:29:20.490Z,6.30
2019-03-11T01:31:48.972Z,7.73
2019-03-11T01:34:17.418Z,7.10
2019-03-11T01:36:45.817Z,8.03
2019-03-11T01:39:14.199Z,6.23
2019-03-11T01:41:42.592Z,4.87
2019-03-11T01:44:10.989Z,7.60
2019-03-11T01:46:39.382Z,7.83
2019-03-11T01:49:07.871Z,7.40
2019-03-11T01:51:36.269Z,9.30
2019-03-11T01:54:04.731Z,8.53
2019-03-11T01:56:33.138Z,5.60
2019-03-11T01:59:01.518Z,4.60
2019-03-11T02:01:30.011Z,5.83
2019-03-11T02:03:58.404Z,6.97
2019-03-11T02:06:26.809Z,9.03
2019-03-11T02:08:55.222Z,6.93
2019-03-11T02:11:23.633Z,6.57
2019-03-11T02:13:52.088Z,6.03
2019-03-11T02:16:20.446Z,8.10
2019-03-11T02:18:48.859Z,8.10
2019-03-11T02:21:17.322Z,6.13
2019-03-11T02:23:45.718Z,5.37
2019-03-11T02:26:14.134Z,8.90
2019-03-11T02:28:42.601Z,8.70
2019-03-11T02:31:11.008Z,9.77
2019-03-11T02:33:39.401Z,6.90
2019-03-11T02:36:07.825Z,9.37
2019-03-11T02:38:36.230Z,8.13
2019-03-11T02:41:04.706Z,6.77
2019-03-11T02:43:33.108Z,7.53
2019-03-11T02:46:01.519Z,9.93
2019-03-11T02:48:29.922Z,8.23
2019-03-11T02:50:58.484Z,6.97
2019-03-11T02:53:26.873Z,8.87
2019-03-11T02:55:55.265Z,7.63
2019-03-11T02:58:23.661Z,9.27
2019-03-11T03:00:53.698Z,7.53
2019-03-11T03:03:29.615Z,8.00
2019-03-11T03:05:59.632Z,7.90
2019-03-11T03:08:28.009Z,8.17
2019-03-11T03:10:56.418Z,5.07
2019-03-11T03:13:24.792Z,7.17
2019-03-11T03:15:53.242Z,9.53
2019-03-11T03:18:21.652Z,8.97
2019-03-11T03:20:50.104Z,8.07
2019-03-11T03:23:18.579Z,7.50
2019-03-11T03:25:46.962Z,7.37
2019-03-11T03:28:15.372Z,8.27
2019-03-11T03:30:43.771Z,8.73
2019-03-11T03:33:12.180Z,11.80
2019-03-11T03:35:40.556Z,7.97
2019-03-11T03:38:08.950Z,6.83
2019-03-11T03:40:37.343Z,8.07
2019-03-11T03:43:06.258Z,6.63
2019-03-11T03:45:38.083Z,7.50
2019-03-11T03:48:06.739Z,7.30
2019-03-11T03:50:41.490Z,6.63
2019-03-11T03:53:10.046Z,9.87
2019-03-11T03:55:38.435Z,8.47
2019-03-11T03:58:06.959Z,7.10
2019-03-11T04:00:35.498Z,11.50
2019-03-11T04:03:03.902Z,9.27
2019-03-11T04:05:32.356Z,7.93
2019-03-11T04:08:00.740Z,6.00
2019-03-11T04:10:32.228Z,8.73
2019-03-11T04:12:59.306Z,7.43
2019-03-11T04:15:27.688Z,5.40
2019-03-11T04:17:56.417Z,7.00
2019-03-11T04:20:26.450Z,7.50
2019-03-11T04:22:54.979Z,7.00
2019-03-11T04:28:34.880Z,8.57
2019-03-11T04:31:03.434Z,5.00
2019-03-11T04:33:31.889Z,8.13
2019-03-11T04:36:00.361Z,9.10
2019-03-11T04:38:28.821Z,7.20
2019-03-11T04:40:57.242Z,6.40
2019-03-11T04:43:25.627Z,7.60
2019-03-11T04:45:54.108Z,6.10
2019-03-11T04:48:22.528Z,9.13
2019-03-11T04:50:52.567Z,7.90
2019-03-11T04:53:21.025Z,4.83
2019-03-11T04:55:49.456Z,6.80
2019-03-11T04:58:17.846Z,5.53
2019-03-11T05:00:46.258Z,6.03
2019-03-11T05:03:14.633Z,6.97
2019-03-11T05:05:43.038Z,8.20
2019-03-11T05:08:11.661Z,10.10
2019-03-11T05:10:40.068Z,7.93
2019-03-11T05:13:08.678Z,3.93
2019-03-11T05:15:36.988Z,4.40
2019-03-11T05:18:05.473Z,2.80
2019-03-11T05:20:33.871Z,2.93
2019-03-11T05:23:02.305Z,0.70
2019-03-11T05:25:30.679Z,3.20
2019-03-11T05:27:59.081Z,0.77
2019-03-11T05:30:27.459Z,1.13
2019-03-11T05:32:55.946Z,0.30
2019-03-11T05:35:24.395Z,1.40
2019-03-11T05:37:52.848Z,0.77
2019-03-11T05:40:21.845Z,1.73
2019-03-11T05:42:50.258Z,2.63
2019-03-11T05:45:22.032Z,1.40
2019-03-11T05:47:50.464Z,3.13
2019-03-11T05:50:19.417Z,1.33
2019-03-11T05:52:47.831Z,1.33
2019-03-11T05:55:16.720Z,1.63
2019-03-11T05:57:45.239Z,2.13
2019-03-11T06:00:29.060Z,2.13
2019-03-11T06:02:57.537Z,2.23
2019-03-11T06:05:25.987Z,2.50
2019-03-11T06:07:54.423Z,0.83
2019-03-11T06:10:22.882Z,1.97
2019-03-11T06:12:51.348Z,1.07
2019-03-11T06:15:19.751Z,2.53
2019-03-11T06:17:48.203Z,1.57
2019-03-11T06:20:28.261Z,2.70
2019-03-11T06:22:56.884Z,3.67
2019-03-11T06:25:25.311Z,5.27
2019-03-11T06:27:53.695Z,4.83
2019-03-11T06:30:22.097Z,3.37
2019-03-11T06:32:50.487Z,3.33
2019-03-11T06:35:18.923Z,2.33
2019-03-11T06:37:47.375Z,1.40
2019-03-11T06:40:16.002Z,2.63
2019-03-11T06:42:44.396Z,1.03
2019-03-11T06:45:14.161Z,3.43
2019-03-11T06:47:42.569Z,2.37
2019-03-11T06:50:13.092Z,4.17
2019-03-11T06:52:41.548Z,1.63
2019-03-11T06:55:11.394Z,4.30
2019-03-11T06:57:39.915Z,1.50
2019-03-11T07:00:14.036Z,1.20
2019-03-11T07:02:42.442Z,2.30
2019-03-11T07:05:19.153Z,1.03
2019-03-11T07:07:41.135Z,3.23
2019-03-11T07:10:11.995Z,1.97
2019-03-11T07:12:40.445Z,2.57
2019-03-11T07:15:10.896Z,1.60
2019-03-11T07:17:39.356Z,3.27
2019-03-11T07:20:16.743Z,3.57
2019-03-11T07:22:45.133Z,3.07
2019-03-11T07:25:13.887Z,4.13
2019-03-11T07:27:42.821Z,4.13
2019-03-11T07:30:15.839Z,2.13
2019-03-11T07:32:44.246Z,1.23
2019-03-11T07:35:12.846Z,1.27
2019-03-11T07:37:41.306Z,2.73
2019-03-11T07:40:11.243Z,3.70
2019-03-11T07:42:39.652Z,1.83
2019-03-11T07:45:10.572Z,0.90
2019-03-11T07:47:39.053Z,2.30
2019-03-11T07:50:09.184Z,1.03
2019-03-11T07:52:37.574Z,1.77
2019-03-11T07:55:11.625Z,1.43
2019-03-11T07:57:40.041Z,1.07
2019-03-11T08:00:11.474Z,3.17
2019-03-11T08:02:39.893Z,3.37
2019-03-11T08:05:09.826Z,2.30
2019-03-11T08:07:38.224Z,2.20
2019-03-11T08:10:09.712Z,0.57
2019-03-11T08:12:38.171Z,1.00
2019-03-11T08:15:09.795Z,2.87
2019-03-11T08:17:38.194Z,1.90
2019-03-11T08:20:09.220Z,1.63
2019-03-11T08:22:37.719Z,2.13
2019-03-11T08:25:08.369Z,2.73
2019-03-11T08:27:36.772Z,5.63
2019-03-11T08:30:13.488Z,4.50
2019-03-11T08:32:41.894Z,5.27
2019-03-11T08:35:10.452Z,6.83
2019-03-11T08:37:38.823Z,6.00
2019-03-11T08:40:18.162Z,9.30
2019-03-11T08:42:46.630Z,4.80
2019-03-11T08:45:16.287Z,9.30
2019-03-11T08:47:44.719Z,5.17
2019-03-11T08:50:14.394Z,4.00
2019-03-11T08:52:42.803Z,3.30
2019-03-11T08:55:11.865Z,3.13
2019-03-11T08:57:41.512Z,3.00
2019-03-11T09:00:20.672Z,2.70
2019-03-11T09:02:49.147Z,1.90
2019-03-11T09:05:17.710Z,1.20
2019-03-11T09:07:46.172Z,3.50
2019-03-11T09:10:15.734Z,0.97
2019-03-11T09:12:44.132Z,3.63
2019-03-11T09:15:17.551Z,2.13
2019-03-11T09:17:46.002Z,1.77
2019-03-11T09:20:18.344Z,1.33
2019-03-11T09:22:46.811Z,3.63
2019-03-11T09:25:25.855Z,2.47
2019-03-11T09:27:54.249Z,3.73
2019-03-11T09:30:23.905Z,3.67
2019-03-11T09:32:52.370Z,2.97
2019-03-11T09:35:20.871Z,2.10
2019-03-11T09:37:49.271Z,1.20
2019-03-11T09:40:18.701Z,3.60
2019-03-11T09:42:47.113Z,2.20
2019-03-11T09:45:16.655Z,1.10
2019-03-11T09:47:45.414Z,2.77
2019-03-11T09:50:17.695Z,1.73
2019-03-11T09:52:46.363Z,1.27
2019-03-11T09:55:23.253Z,1.40
2019-03-11T09:57:51.671Z,1.80
2019-03-11T10:00:25.328Z,2.87
2019-03-11T10:02:53.839Z,4.27
2019-03-11T10:05:22.243Z,2.43
2019-03-11T10:07:51.145Z,2.37
2019-03-11T10:10:25.066Z,1.63
2019-03-11T10:12:53.482Z,2.30
2019-03-11T10:15:23.001Z,2.20
2019-03-11T10:17:51.492Z,1.17
2019-03-11T10:20:20.546Z,2.40
2019-03-11T10:22:49.334Z,0.73
2019-03-11T10:25:18.470Z,2.37
2019-03-11T10:27:47.116Z,3.10
2019-03-11T10:30:17.721Z,2.93
2019-03-11T10:32:46.473Z,1.70
2019-03-11T10:35:30.749Z,1.77
2019-03-11T10:37:46.441Z,3.30
2019-03-11T10:40:20.143Z,2.67
2019-03-11T10:42:48.701Z,1.70
2019-03-11T10:45:17.628Z,2.53
2019-03-11T10:47:46.168Z,2.27
2019-03-11T10:50:16.233Z,3.93
2019-03-11T10:52:44.721Z,4.47
2019-03-11T10:55:15.459Z,1.47
2019-03-11T10:57:44.115Z,1.90
2019-03-11T11:00:35.565Z,3.80
2019-03-11T11:03:04.332Z,1.97
2019-03-11T11:05:32.914Z,3.07
2019-03-11T11:08:01.392Z,1.33
2019-03-11T11:10:29.903Z,1.87
2019-03-11T11:12:58.316Z,1.17
2019-03-11T11:15:34.237Z,1.27
2019-03-11T11:18:02.795Z,1.47
2019-03-11T11:20:31.204Z,5.93
2019-03-11T11:22:59.656Z,2.53
2019-03-11T11:25:29.204Z,2.40
2019-03-11T11:27:57.907Z,4.20
2019-03-11T11:30:28.356Z,1.73
2019-03-11T11:32:59.422Z,2.23
2019-03-11T11:35:27.925Z,2.20
2019-03-11T11:37:56.421Z,1.77
2019-03-11T11:40:25.777Z,3.23
2019-03-11T11:42:54.408Z,2.53
2019-03-11T11:45:23.936Z,4.50
2019-03-11T11:47:52.473Z,3.93
2019-03-11T11:50:22.688Z,2.20
2019-03-11T11:52:51.602Z,2.10
2019-03-11T11:55:21.555Z,2.73
2019-03-11T11:57:50.038Z,1.30
2019-03-11T12:00:36.723Z,1.40
2019-03-11T12:03:05.121Z,3.13
2019-03-11T12:05:33.733Z,1.77
2019-03-11T12:08:02.301Z,2.83
2019-03-11T12:10:34.253Z,1.23
2019-03-11T12:13:02.848Z,1.70
2019-03-11T12:15:31.381Z,1.50
2019-03-11T12:17:59.863Z,0.83
2019-03-11T12:20:29.306Z,1.77
2019-03-11T12:22:57.789Z,1.90
2019-03-11T12:25:26.246Z,1.17
2019-03-11T12:27:56.016Z,1.90
2019-03-11T12:30:29.372Z,10.80
2019-03-11T12:32:58.190Z,2.23
2019-03-11T12:35:27.137Z,1.97
2019-03-11T12:37:55.885Z,2.03
2019-03-11T12:40:24.723Z,0.70
2019-03-11T12:42:53.281Z,1.77
2019-03-11T12:45:25.656Z,2.20
2019-03-11T12:47:54.496Z,2.93
2019-03-11T12:50:25.181Z,1.47
2019-03-11T12:52:53.594Z,3.43
2019-03-11T12:55:22.264Z,4.63
2019-03-11T12:57:50.816Z,2.33
2019-03-11T13:00:22.931Z,2.53
2019-03-11T13:02:51.695Z,1.93
2019-03-11T13:05:20.327Z,2.60
2019-03-11T13:07:49.029Z,3.07
2019-03-11T13:10:25.635Z,4.10
2019-03-11T13:12:54.330Z,1.57
2019-03-11T13:15:22.883Z,2.43
2019-03-11T13:17:51.372Z,9.60
2019-03-11T13:20:38.245Z,2.77
2019-03-11T13:23:06.683Z,1.90
2019-03-11T13:25:35.171Z,2.83
2019-03-11T13:28:03.810Z,1.50
2019-03-11T13:30:32.210Z,1.67
2019-03-11T13:33:00.678Z,4.87
2019-03-11T13:35:29.081Z,2.57
2019-03-11T13:37:57.554Z,3.07
2019-03-11T13:40:26.050Z,1.73
2019-03-11T13:42:54.516Z,1.87
2019-03-11T13:45:22.934Z,3.90
2019-03-11T13:47:51.346Z,2.73
2019-03-11T13:50:20.328Z,3.53
2019-03-11T13:52:48.863Z,1.40
2019-03-11T13:55:17.817Z,3.20
2019-03-11T13:57:46.378Z,5.83
2019-03-11T14:00:19.087Z,4.90
2019-03-11T14:02:48.104Z,3.07
2019-03-11T14:05:16.777Z,1.70
2019-03-11T14:07:45.317Z,1.30
2019-03-11T14:10:15.301Z,2.00
2019-03-11T14:12:43.765Z,2.13
2019-03-11T14:15:16.976Z,3.33
2019-03-11T14:17:45.549Z,2.20
2019-03-11T14:20:14.713Z,2.33
2019-03-11T14:22:43.250Z,3.43
2019-03-11T14:25:12.615Z,2.43
2019-03-11T14:27:41.106Z,4.43
2019-03-11T14:30:17.527Z,2.10
2019-03-11T14:32:45.943Z,1.83
2019-03-11T14:35:14.496Z,2.43
2019-03-11T14:37:42.986Z,1.23
2019-03-11T14:40:18.482Z,1.97
2019-03-11T14:42:46.997Z,2.10
2019-03-11T14:45:17.546Z,1.20
2019-03-11T14:47:46.005Z,2.43
2019-03-11T14:50:15.441Z,3.40
2019-03-11T14:52:43.890Z,2.87
2019-03-11T14:55:13.436Z,2.50
2019-03-11T14:57:41.968Z,1.90
2019-03-11T15:00:18.996Z,2.00
2019-03-11T15:02:48.571Z,2.93
2019-03-11T15:05:21.059Z,3.00
2019-03-11T15:07:49.710Z,3.10
2019-03-11T15:10:20.983Z,2.20
2019-03-11T15:12:49.702Z,3.77
2019-03-11T15:15:22.400Z,1.07
2019-03-11T15:17:51.048Z,1.63
2019-03-11T15:20:19.608Z,1.67
2019-03-11T15:22:48.163Z,2.93
2019-03-11T15:25:16.653Z,1.70
2019-03-11T15:27:45.543Z,2.20
2019-03-11T15:30:25.140Z,0.93
2019-03-11T15:32:53.695Z,0.50
2019-03-11T15:35:22.288Z,1.60
2019-03-11T15:37:50.688Z,0.90
2019-03-11T15:40:19.428Z,1.43
2019-03-11T15:42:47.935Z,2.00
2019-03-11T15:45:17.352Z,1.37
2019-03-11T15:47:46.006Z,1.93
2019-03-11T15:50:23.408Z,3.80
2019-03-11T15:52:51.900Z,1.73
2019-03-11T15:55:20.383Z,3.73
2019-03-11T15:57:49.085Z,0.77
2019-03-11T16:00:20.037Z,2.00
2019-03-11T16:02:48.664Z,1.33
2019-03-11T16:05:21.765Z,3.00
2019-03-11T16:07:50.370Z,1.93
2019-03-11T16:10:19.271Z,2.30
2019-03-11T16:12:48.002Z,1.63
2019-03-11T16:15:17.486Z,5.97
2019-03-11T16:17:45.956Z,1.03
2019-03-11T16:20:24.409Z,3.57
2019-03-11T16:22:52.834Z,1.90
2019-03-11T16:25:21.247Z,2.70
2019-03-11T16:27:49.721Z,1.70
2019-03-11T16:30:22.758Z,4.70
2019-03-11T16:32:59.400Z,2.33
2019-03-11T16:35:23.146Z,1.57
2019-03-11T16:37:51.596Z,3.30
2019-03-11T16:40:20.350Z,2.50
2019-03-11T16:42:48.828Z,2.43
2019-03-11T16:45:19.012Z,3.63
2019-03-11T16:47:48.179Z,2.27
2019-03-11T16:50:18.776Z,1.80
2019-03-11T16:52:47.249Z,2.50
2019-03-11T16:55:19.997Z,2.87
2019-03-11T16:57:48.641Z,2.53
2019-03-11T17:00:32.765Z,1.27
2019-03-11T17:03:01.305Z,2.60
2019-03-11T17:05:29.904Z,3.50
2019-03-11T17:07:58.291Z,2.50
2019-03-11T17:10:27.016Z,3.07
2019-03-11T17:12:55.418Z,2.13
2019-03-11T17:15:23.899Z,3.43
2019-03-11T17:17:52.323Z,3.23
2019-03-11T17:20:20.973Z,3.37
2019-03-11T17:22:49.507Z,3.27
2019-03-11T17:25:18.045Z,2.63
2019-03-11T17:27:46.510Z,5.27
2019-03-11T17:30:18.987Z,2.85
2019-03-11T17:32:47.505Z,3.30
2019-03-11T17:35:16.648Z,3.03
2019-03-11T17:37:45.795Z,2.57
2019-03-11T17:40:16.699Z,2.83
2019-03-11T17:42:45.261Z,3.33
2019-03-11T17:45:15.069Z,1.40
2019-03-11T17:47:43.725Z,1.37
2019-03-11T17:50:23.329Z,1.77
2019-03-11T17:52:52.125Z,4.00
2019-03-11T17:55:21.422Z,4.30
2019-03-11T17:57:50.081Z,2.37
2019-03-11T18:00:36.164Z,1.67
2019-03-11T18:03:05.355Z,1.67
2019-03-11T18:05:33.910Z,1.73
2019-03-11T18:08:02.490Z,0.93
2019-03-11T18:10:31.167Z,2.63
2019-03-11T18:12:59.691Z,1.57
2019-03-11T18:15:28.305Z,2.80
2019-03-11T18:17:56.948Z,4.13
2019-03-11T18:20:25.515Z,4.70
2019-03-11T18:22:54.105Z,2.63
2019-03-11T18:25:22.678Z,3.93
2019-03-11T18:27:51.229Z,0.90
2019-03-11T18:30:30.741Z,3.30
2019-03-11T18:32:59.195Z,2.27
2019-03-11T18:35:27.886Z,2.40
2019-03-11T18:38:03.899Z,2.00
2019-03-11T18:40:26.779Z,2.13
2019-03-11T18:42:55.328Z,2.93
2019-03-11T18:45:23.970Z,3.00
2019-03-11T18:47:52.489Z,6.30
2019-03-11T18:50:23.240Z,4.90
2019-03-11T18:52:51.829Z,2.83
2019-03-11T18:55:20.379Z,3.20
2019-03-11T18:57:48.900Z,5.73
2019-03-11T19:00:18.916Z,5.60
2019-03-11T19:02:47.390Z,5.17
2019-03-11T19:05:20.775Z,3.53
2019-03-11T19:07:49.344Z,4.13
2019-03-11T19:10:18.149Z,2.87
2019-03-11T19:12:46.604Z,0.83
2019-03-11T19:15:23.282Z,3.58
2019-03-11T19:17:51.840Z,2.00
2019-03-11T19:20:24.261Z,2.20
2019-03-11T19:22:52.993Z,1.60
2019-03-11T19:25:21.652Z,2.70
2019-03-11T19:27:50.284Z,1.77
2019-03-11T19:30:22.101Z,1.20
2019-03-11T19:32:50.674Z,3.23
2019-03-11T19:35:19.689Z,1.03
2019-03-11T19:37:48.315Z,1.63
2019-03-11T19:40:19.319Z,3.17
2019-03-11T19:42:47.856Z,1.83
2019-03-11T19:45:17.028Z,3.90
2019-03-11T19:47:45.406Z,3.27
2019-03-11T19:50:15.823Z,2.27
2019-03-11T19:52:44.325Z,3.77
2019-03-11T19:55:14.255Z,2.93
2019-03-11T19:57:42.773Z,2.43
2019-03-11T20:00:16.727Z,4.50
2019-03-11T20:02:45.455Z,1.63
2019-03-11T20:05:16.327Z,2.13
2019-03-11T20:07:44.815Z,1.17
2019-03-11T20:10:13.762Z,3.50
2019-03-11T20:12:42.325Z,3.40
2019-03-11T20:15:12.175Z,2.17
2019-03-11T20:17:40.640Z,2.27
2019-03-11T20:20:15.079Z,2.07
2019-03-11T20:22:43.737Z,2.97
2019-03-11T20:25:17.839Z,1.47
2019-03-11T20:27:46.588Z,2.00
2019-03-11T20:30:21.090Z,1.50
2019-03-11T20:32:49.669Z,1.57
2019-03-11T20:35:18.385Z,3.17
2019-03-11T20:37:46.900Z,10.10
2019-03-11T20:40:15.686Z,3.27
2019-03-11T20:42:44.166Z,4.27
2019-03-11T20:45:14.975Z,2.10
2019-03-11T20:47:43.398Z,2.77
2019-03-11T20:50:14.294Z,5.70
2019-03-11T20:52:42.807Z,2.97
2019-03-11T20:55:15.686Z,6.67
2019-03-11T20:57:44.158Z,2.10
2019-03-11T21:03:35.805Z,3.83
2019-03-11T21:06:06.797Z,3.50
2019-03-11T21:08:35.275Z,3.00
2019-03-11T21:11:03.743Z,2.50
2019-03-11T21:13:32.200Z,2.10
2019-03-11T21:16:00.627Z,2.70
2019-03-11T21:18:29.129Z,3.03
2019-03-11T21:21:04.875Z,3.70
2019-03-11T21:23:27.857Z,2.77
2019-03-11T21:25:56.940Z,6.17
2019-03-11T21:28:28.370Z,3.60
2019-03-11T21:30:56.852Z,2.17
2019-03-11T21:33:25.490Z,2.00
2019-03-11T21:35:53.979Z,2.33
2019-03-11T21:38:22.490Z,3.83
2019-03-11T21:40:50.934Z,3.10
2019-03-11T21:43:19.356Z,3.07
2019-03-11T21:45:47.839Z,2.70
2019-03-11T21:48:16.286Z,1.50
2019-03-11T21:50:45.055Z,4.87
2019-03-11T21:53:13.515Z,3.33
2019-03-11T21:55:42.388Z,2.27
2019-03-11T21:58:13.497Z,3.60
2019-03-11T22:00:41.411Z,3.93
2019-03-11T22:03:09.861Z,2.80
2019-03-11T22:05:38.517Z,2.70
2019-03-11T22:08:07.326Z,14.37
2019-03-11T22:10:36.458Z,12.23
2019-03-11T22:13:04.990Z,5.03
2019-03-11T22:15:33.439Z,3.07
2019-03-11T22:18:03.380Z,4.80
2019-03-11T22:20:31.778Z,4.50
2019-03-11T22:23:00.214Z,6.93
2019-03-11T22:25:28.619Z,2.47
2019-03-11T22:27:57.040Z,2.50
2019-03-11T22:30:25.908Z,2.90
2019-03-11T22:32:54.293Z,3.67
2019-03-11T22:35:22.688Z,2.60
2019-03-11T22:37:51.270Z,3.70
2019-03-11T22:40:21.226Z,3.80
2019-03-11T22:42:49.623Z,5.47
2019-03-11T22:45:21.034Z,1.97
2019-03-11T22:47:51.528Z,4.50
2019-03-11T22:50:20.664Z,2.30
2019-03-11T22:52:49.135Z,2.27
2019-03-11T22:55:19.331Z,1.53
2019-03-11T22:57:48.031Z,1.87
2019-03-11T23:00:36.336Z,1.33
2019-03-11T23:03:06.726Z,1.87
2019-03-11T23:05:35.197Z,2.53
2019-03-11T23:08:05.092Z,3.07
2019-03-11T23:10:33.521Z,2.20
2019-03-11T23:13:01.915Z,3.17
2019-03-11T23:15:30.359Z,3.13
2019-03-11T23:17:58.772Z,2.97
2019-03-11T23:20:27.231Z,3.33
2019-03-11T23:22:55.614Z,3.30
2019-03-11T23:25:24.049Z,3.23
2019-03-11T23:27:52.500Z,2.17
2019-03-11T23:30:20.889Z,3.60
2019-03-11T23:32:49.355Z,2.60
2019-03-11T23:35:17.747Z,5.33
2019-03-11T23:37:46.154Z,4.00
2019-03-11T23:40:14.548Z,2.83
2019-03-11T23:42:42.947Z,1.73
2019-03-11T23:45:12.288Z,3.50
2019-03-11T23:47:40.710Z,3.73
2019-03-11T23:50:11.489Z,2.17
2019-03-11T23:52:39.891Z,1.90
2019-03-11T23:55:10.426Z,2.33
2019-03-11T23:57:38.920Z,2.67
